sensor_id;sensor_type;location;lat;lon;timestamp;P1;durP1;ratioP1;P2;durP2;ratioP2
38053;SDS011;23859;50.672;7.164;2023-05-16T00:00:30;11.02;;;6.47;;
38053;SDS011;23859;50.672;7.164;2023-05-16T00:02:59;14.43;;;6.80;;
38053;SDS011;23859;50.672;7.164;2023-05-16T00:05:26;15.55;;;7.25;;
38053;SDS011;23859;50.672;7.164;2023-05-16T00:07:53;12.40;;;6.10;;
38053;SDS011;23859;50.672;7.164;2023-05-16T00:10:19;18.77;;;7.65;;
38053;SDS011;23859;50.672;7.164;2023-05-16T00:12:45;16.05;;;7.68;;
38053;SDS011;23859;50.672;7.164;2023-05-16T00:15:12;11.77;;;6.60;;
38053;SDS011;23859;50.672;7.164;2023-05-16T00:17:38;9.15;;;6.15;;
38053;SDS011;23859;50.672;7.164;2023-05-16T00:20:05;14.55;;;6.55;;
38053;SDS011;23859;50.672;7.164;2023-05-16T00:22:32;13.77;;;5.72;;
38053;SDS011;23859;50.672;7.164;2023-05-16T00:24:58;11.70;;;6.18;;
38053;SDS011;23859;50.672;7.164;2023-05-16T00:27:25;12.07;;;6.97;;
38053;SDS011;23859;50.672;7.164;2023-05-16T00:29:51;14.40;;;7.63;;
38053;SDS011;23859;50.672;7.164;2023-05-16T00:32:17;12.05;;;6.68;;
38053;SDS011;23859;50.672;7.164;2023-05-16T00:34:43;14.90;;;7.45;;
38053;SDS011;23859;50.672;7.164;2023-05-16T00:37:09;13.77;;;7.15;;
38053;SDS011;23859;50.672;7.164;2023-05-16T00:39:35;12.85;;;7.25;;
38053;SDS011;23859;50.672;7.164;2023-05-16T00:42:01;16.23;;;6.43;;
38053;SDS011;23859;50.672;7.164;2023-05-16T00:44:27;11.20;;;6.85;;
38053;SDS011;23859;50.672;7.164;2023-05-16T00:46:54;8.30;;;6.38;;
38053;SDS011;23859;50.672;7.164;2023-05-16T00:49:21;12.88;;;6.82;;
38053;SDS011;23859;50.672;7.164;2023-05-16T00:51:47;13.70;;;6.80;;
38053;SDS011;23859;50.672;7.164;2023-05-16T00:54:13;10.65;;;7.35;;
38053;SDS011;23859;50.672;7.164;2023-05-16T00:56:39;9.85;;;5.85;;
38053;SDS011;23859;50.672;7.164;2023-05-16T00:59:06;9.88;;;6.20;;
38053;SDS011;23859;50.672;7.164;2023-05-16T01:01:32;9.07;;;6.03;;
38053;SDS011;23859;50.672;7.164;2023-05-16T01:03:59;9.88;;;5.97;;
38053;SDS011;23859;50.672;7.164;2023-05-16T01:06:26;11.43;;;6.57;;
38053;SDS011;23859;50.672;7.164;2023-05-16T01:08:52;8.40;;;5.50;;
38053;SDS011;23859;50.672;7.164;2023-05-16T01:11:23;12.98;;;6.45;;
38053;SDS011;23859;50.672;7.164;2023-05-16T01:14:11;8.23;;;5.00;;
38053;SDS011;23859;50.672;7.164;2023-05-16T01:17:04;7.93;;;5.10;;
38053;SDS011;23859;50.672;7.164;2023-05-16T01:28:15;12.45;;;5.72;;
38053;SDS011;23859;50.672;7.164;2023-05-16T01:30:41;9.90;;;5.57;;
38053;SDS011;23859;50.672;7.164;2023-05-16T01:33:08;8.02;;;5.25;;
38053;SDS011;23859;50.672;7.164;2023-05-16T01:35:35;7.85;;;5.32;;
38053;SDS011;23859;50.672;7.164;2023-05-16T01:38:17;12.18;;;5.38;;
38053;SDS011;23859;50.672;7.164;2023-05-16T01:44:04;12.13;;;6.32;;
38053;SDS011;23859;50.672;7.164;2023-05-16T01:46:14;14.82;;;6.57;;
38053;SDS011;23859;50.672;7.164;2023-05-16T01:49:33;9.57;;;5.95;;
38053;SDS011;23859;50.672;7.164;2023-05-16T01:51:41;13.13;;;7.70;;
38053;SDS011;23859;50.672;7.164;2023-05-16T01:54:14;14.25;;;8.85;;
38053;SDS011;23859;50.672;7.164;2023-05-16T01:56:46;14.57;;;7.95;;
38053;SDS011;23859;50.672;7.164;2023-05-16T01:59:18;17.02;;;9.00;;
38053;SDS011;23859;50.672;7.164;2023-05-16T02:01:46;14.82;;;10.10;;
38053;SDS011;23859;50.672;7.164;2023-05-16T02:04:12;17.42;;;9.10;;
38053;SDS011;23859;50.672;7.164;2023-05-16T02:06:39;15.13;;;9.00;;
38053;SDS011;23859;50.672;7.164;2023-05-16T02:09:06;15.00;;;9.15;;
38053;SDS011;23859;50.672;7.164;2023-05-16T02:11:32;14.52;;;9.40;;
38053;SDS011;23859;50.672;7.164;2023-05-16T02:13:58;17.60;;;9.63;;
38053;SDS011;23859;50.672;7.164;2023-05-16T02:16:24;15.02;;;9.15;;
38053;SDS011;23859;50.672;7.164;2023-05-16T02:18:51;13.55;;;8.57;;
38053;SDS011;23859;50.672;7.164;2023-05-16T02:21:17;14.85;;;8.80;;
38053;SDS011;23859;50.672;7.164;2023-05-16T02:23:43;17.08;;;9.23;;
38053;SDS011;23859;50.672;7.164;2023-05-16T02:26:09;15.02;;;8.57;;
38053;SDS011;23859;50.672;7.164;2023-05-16T02:28:35;17.38;;;10.48;;
38053;SDS011;23859;50.672;7.164;2023-05-16T02:31:01;14.32;;;9.25;;
38053;SDS011;23859;50.672;7.164;2023-05-16T02:33:28;12.55;;;8.13;;
38053;SDS011;23859;50.672;7.164;2023-05-16T02:35:54;13.40;;;7.35;;
38053;SDS011;23859;50.672;7.164;2023-05-16T02:38:20;12.85;;;7.90;;
38053;SDS011;23859;50.672;7.164;2023-05-16T02:40:47;15.63;;;9.65;;
38053;SDS011;23859;50.672;7.164;2023-05-16T02:43:13;19.15;;;10.40;;
38053;SDS011;23859;50.672;7.164;2023-05-16T02:45:39;18.42;;;10.25;;
38053;SDS011;23859;50.672;7.164;2023-05-16T02:48:06;22.30;;;12.48;;
38053;SDS011;23859;50.672;7.164;2023-05-16T02:50:32;27.27;;;13.38;;
38053;SDS011;23859;50.672;7.164;2023-05-16T02:52:58;24.52;;;13.30;;
38053;SDS011;23859;50.672;7.164;2023-05-16T02:55:26;26.35;;;14.38;;
38053;SDS011;23859;50.672;7.164;2023-05-16T02:57:52;21.95;;;13.05;;
38053;SDS011;23859;50.672;7.164;2023-05-16T03:00:19;27.60;;;14.88;;
38053;SDS011;23859;50.672;7.164;2023-05-16T03:02:45;28.15;;;15.52;;
38053;SDS011;23859;50.672;7.164;2023-05-16T03:05:11;28.08;;;14.80;;
38053;SDS011;23859;50.672;7.164;2023-05-16T03:07:37;27.77;;;14.20;;
38053;SDS011;23859;50.672;7.164;2023-05-16T03:10:04;29.35;;;15.23;;
38053;SDS011;23859;50.672;7.164;2023-05-16T03:12:31;28.35;;;15.43;;
38053;SDS011;23859;50.672;7.164;2023-05-16T03:14:57;28.70;;;16.00;;
38053;SDS011;23859;50.672;7.164;2023-05-16T03:17:23;28.77;;;14.43;;
38053;SDS011;23859;50.672;7.164;2023-05-16T03:19:49;25.15;;;13.48;;
38053;SDS011;23859;50.672;7.164;2023-05-16T03:22:15;21.83;;;11.60;;
38053;SDS011;23859;50.672;7.164;2023-05-16T03:24:42;20.30;;;12.63;;
38053;SDS011;23859;50.672;7.164;2023-05-16T03:27:08;24.20;;;11.90;;
38053;SDS011;23859;50.672;7.164;2023-05-16T03:29:35;21.67;;;12.40;;
38053;SDS011;23859;50.672;7.164;2023-05-16T03:32:01;15.63;;;8.52;;
38053;SDS011;23859;50.672;7.164;2023-05-16T03:34:27;17.45;;;8.52;;
38053;SDS011;23859;50.672;7.164;2023-05-16T03:36:53;12.48;;;7.68;;
38053;SDS011;23859;50.672;7.164;2023-05-16T03:39:19;13.70;;;7.68;;
38053;SDS011;23859;50.672;7.164;2023-05-16T03:41:45;16.48;;;6.63;;
38053;SDS011;23859;50.672;7.164;2023-05-16T03:44:12;14.30;;;7.00;;
38053;SDS011;23859;50.672;7.164;2023-05-16T03:46:38;11.48;;;6.78;;
38053;SDS011;23859;50.672;7.164;2023-05-16T03:49:04;10.77;;;6.63;;
38053;SDS011;23859;50.672;7.164;2023-05-16T03:51:30;23.88;;;7.57;;
38053;SDS011;23859;50.672;7.164;2023-05-16T03:53:57;13.23;;;6.68;;
38053;SDS011;23859;50.672;7.164;2023-05-16T03:56:23;13.13;;;7.45;;
38053;SDS011;23859;50.672;7.164;2023-05-16T03:58:49;18.95;;;7.20;;
38053;SDS011;23859;50.672;7.164;2023-05-16T04:01:15;18.52;;;7.70;;
38053;SDS011;23859;50.672;7.164;2023-05-16T04:03:42;20.88;;;6.78;;
38053;SDS011;23859;50.672;7.164;2023-05-16T04:06:08;15.45;;;6.82;;
38053;SDS011;23859;50.672;7.164;2023-05-16T04:08:34;15.85;;;7.55;;
38053;SDS011;23859;50.672;7.164;2023-05-16T04:11:00;12.70;;;6.65;;
38053;SDS011;23859;50.672;7.164;2023-05-16T04:13:26;17.55;;;6.63;;
38053;SDS011;23859;50.672;7.164;2023-05-16T04:15:52;25.25;;;7.78;;
38053;SDS011;23859;50.672;7.164;2023-05-16T04:18:18;17.17;;;7.10;;
38053;SDS011;23859;50.672;7.164;2023-05-16T04:20:45;19.33;;;7.65;;
38053;SDS011;23859;50.672;7.164;2023-05-16T04:23:12;22.33;;;7.47;;
38053;SDS011;23859;50.672;7.164;2023-05-16T04:25:39;18.80;;;7.72;;
38053;SDS011;23859;50.672;7.164;2023-05-16T04:28:06;22.88;;;8.95;;
38053;SDS011;23859;50.672;7.164;2023-05-16T04:30:33;22.05;;;8.85;;
38053;SDS011;23859;50.672;7.164;2023-05-16T04:32:59;15.35;;;8.40;;
38053;SDS011;23859;50.672;7.164;2023-05-16T04:35:26;25.63;;;8.27;;
38053;SDS011;23859;50.672;7.164;2023-05-16T04:37:52;21.00;;;8.77;;
38053;SDS011;23859;50.672;7.164;2023-05-16T04:40:18;18.63;;;8.77;;
38053;SDS011;23859;50.672;7.164;2023-05-16T04:42:44;17.58;;;9.32;;
38053;SDS011;23859;50.672;7.164;2023-05-16T04:45:10;21.33;;;8.85;;
38053;SDS011;23859;50.672;7.164;2023-05-16T04:47:38;25.67;;;9.85;;
38053;SDS011;23859;50.672;7.164;2023-05-16T04:50:05;26.23;;;9.80;;
38053;SDS011;23859;50.672;7.164;2023-05-16T04:52:33;22.15;;;10.00;;
38053;SDS011;23859;50.672;7.164;2023-05-16T04:54:59;26.55;;;10.57;;
38053;SDS011;23859;50.672;7.164;2023-05-16T04:57:25;25.38;;;10.98;;
38053;SDS011;23859;50.672;7.164;2023-05-16T04:59:52;27.48;;;9.85;;
38053;SDS011;23859;50.672;7.164;2023-05-16T05:02:18;28.83;;;9.40;;
38053;SDS011;23859;50.672;7.164;2023-05-16T05:04:44;25.10;;;9.18;;
38053;SDS011;23859;50.672;7.164;2023-05-16T05:07:10;22.80;;;8.65;;
38053;SDS011;23859;50.672;7.164;2023-05-16T05:09:37;23.90;;;9.02;;
38053;SDS011;23859;50.672;7.164;2023-05-16T05:12:04;25.88;;;9.60;;
38053;SDS011;23859;50.672;7.164;2023-05-16T05:14:31;17.27;;;8.63;;
38053;SDS011;23859;50.672;7.164;2023-05-16T05:16:57;37.83;;;9.30;;
38053;SDS011;23859;50.672;7.164;2023-05-16T05:19:23;23.50;;;8.65;;
38053;SDS011;23859;50.672;7.164;2023-05-16T05:21:49;25.40;;;8.63;;
38053;SDS011;23859;50.672;7.164;2023-05-16T05:24:15;23.45;;;8.68;;
38053;SDS011;23859;50.672;7.164;2023-05-16T05:26:41;24.45;;;8.82;;
38053;SDS011;23859;50.672;7.164;2023-05-16T05:29:07;21.98;;;8.20;;
38053;SDS011;23859;50.672;7.164;2023-05-16T05:31:33;20.75;;;7.97;;
38053;SDS011;23859;50.672;7.164;2023-05-16T05:33:59;32.45;;;8.13;;
38053;SDS011;23859;50.672;7.164;2023-05-16T05:36:26;18.08;;;7.03;;
38053;SDS011;23859;50.672;7.164;2023-05-16T05:38:52;18.63;;;7.90;;
38053;SDS011;23859;50.672;7.164;2023-05-16T05:41:18;18.48;;;8.68;;
38053;SDS011;23859;50.672;7.164;2023-05-16T05:43:46;22.50;;;7.88;;
38053;SDS011;23859;50.672;7.164;2023-05-16T05:46:12;19.27;;;7.47;;
38053;SDS011;23859;50.672;7.164;2023-05-16T05:48:38;28.98;;;7.93;;
38053;SDS011;23859;50.672;7.164;2023-05-16T05:51:04;23.83;;;7.38;;
38053;SDS011;23859;50.672;7.164;2023-05-16T05:53:30;24.60;;;8.07;;
38053;SDS011;23859;50.672;7.164;2023-05-16T05:55:56;27.20;;;6.80;;
38053;SDS011;23859;50.672;7.164;2023-05-16T05:58:22;26.08;;;7.35;;
38053;SDS011;23859;50.672;7.164;2023-05-16T06:00:48;17.67;;;7.13;;
38053;SDS011;23859;50.672;7.164;2023-05-16T06:03:14;14.65;;;7.40;;
38053;SDS011;23859;50.672;7.164;2023-05-16T06:05:41;14.63;;;6.70;;
38053;SDS011;23859;50.672;7.164;2023-05-16T06:08:07;27.67;;;6.88;;
38053;SDS011;23859;50.672;7.164;2023-05-16T06:10:33;17.98;;;7.00;;
38053;SDS011;23859;50.672;7.164;2023-05-16T06:12:59;21.52;;;6.30;;
38053;SDS011;23859;50.672;7.164;2023-05-16T06:15:25;20.35;;;6.30;;
38053;SDS011;23859;50.672;7.164;2023-05-16T06:17:51;18.23;;;6.70;;
38053;SDS011;23859;50.672;7.164;2023-05-16T06:20:17;20.95;;;6.50;;
38053;SDS011;23859;50.672;7.164;2023-05-16T06:22:43;19.35;;;5.20;;
38053;SDS011;23859;50.672;7.164;2023-05-16T06:25:09;12.27;;;5.40;;
38053;SDS011;23859;50.672;7.164;2023-05-16T06:27:36;16.80;;;5.90;;
38053;SDS011;23859;50.672;7.164;2023-05-16T06:30:02;15.68;;;6.00;;
38053;SDS011;23859;50.672;7.164;2023-05-16T06:32:28;13.13;;;5.03;;
38053;SDS011;23859;50.672;7.164;2023-05-16T06:34:54;16.73;;;5.20;;
38053;SDS011;23859;50.672;7.164;2023-05-16T06:37:21;15.25;;;6.15;;
38053;SDS011;23859;50.672;7.164;2023-05-16T06:39:47;15.63;;;5.72;;
38053;SDS011;23859;50.672;7.164;2023-05-16T06:42:13;17.52;;;5.38;;
38053;SDS011;23859;50.672;7.164;2023-05-16T06:44:39;14.18;;;4.95;;
38053;SDS011;23859;50.672;7.164;2023-05-16T06:47:05;13.40;;;5.40;;
38053;SDS011;23859;50.672;7.164;2023-05-16T06:49:32;16.88;;;4.80;;
38053;SDS011;23859;50.672;7.164;2023-05-16T06:51:58;15.07;;;5.35;;
38053;SDS011;23859;50.672;7.164;2023-05-16T06:54:24;20.10;;;6.13;;
38053;SDS011;23859;50.672;7.164;2023-05-16T06:56:50;12.65;;;5.55;;
38053;SDS011;23859;50.672;7.164;2023-05-16T06:59:16;18.80;;;5.43;;
38053;SDS011;23859;50.672;7.164;2023-05-16T07:01:43;19.60;;;5.22;;
38053;SDS011;23859;50.672;7.164;2023-05-16T07:04:09;15.77;;;4.68;;
38053;SDS011;23859;50.672;7.164;2023-05-16T07:06:35;17.77;;;6.05;;
38053;SDS011;23859;50.672;7.164;2023-05-16T07:09:01;14.98;;;4.50;;
38053;SDS011;23859;50.672;7.164;2023-05-16T07:11:27;12.98;;;4.07;;
38053;SDS011;23859;50.672;7.164;2023-05-16T07:13:53;15.57;;;5.57;;
38053;SDS011;23859;50.672;7.164;2023-05-16T07:16:19;13.68;;;3.53;;
38053;SDS011;23859;50.672;7.164;2023-05-16T07:18:45;7.63;;;2.85;;
38053;SDS011;23859;50.672;7.164;2023-05-16T07:21:11;13.35;;;3.03;;
38053;SDS011;23859;50.672;7.164;2023-05-16T07:23:37;11.65;;;3.58;;
38053;SDS011;23859;50.672;7.164;2023-05-16T07:26:03;12.02;;;3.50;;
38053;SDS011;23859;50.672;7.164;2023-05-16T07:28:29;12.95;;;2.90;;
38053;SDS011;23859;50.672;7.164;2023-05-16T07:30:55;11.02;;;2.80;;
38053;SDS011;23859;50.672;7.164;2023-05-16T07:33:22;12.38;;;2.80;;
38053;SDS011;23859;50.672;7.164;2023-05-16T07:35:49;7.70;;;2.40;;
38053;SDS011;23859;50.672;7.164;2023-05-16T07:38:16;10.77;;;3.40;;
38053;SDS011;23859;50.672;7.164;2023-05-16T07:40:42;8.98;;;2.25;;
38053;SDS011;23859;50.672;7.164;2023-05-16T07:43:08;9.27;;;3.10;;
38053;SDS011;23859;50.672;7.164;2023-05-16T07:45:34;7.88;;;2.33;;
38053;SDS011;23859;50.672;7.164;2023-05-16T07:48:00;6.38;;;2.35;;
38053;SDS011;23859;50.672;7.164;2023-05-16T07:50:27;8.80;;;2.15;;
38053;SDS011;23859;50.672;7.164;2023-05-16T07:52:53;11.15;;;3.08;;
38053;SDS011;23859;50.672;7.164;2023-05-16T07:55:19;9.45;;;2.17;;
38053;SDS011;23859;50.672;7.164;2023-05-16T07:57:46;11.88;;;2.47;;
38053;SDS011;23859;50.672;7.164;2023-05-16T08:00:13;10.48;;;2.67;;
38053;SDS011;23859;50.672;7.164;2023-05-16T08:02:39;8.10;;;2.08;;
38053;SDS011;23859;50.672;7.164;2023-05-16T08:05:05;6.35;;;2.03;;
38053;SDS011;23859;50.672;7.164;2023-05-16T08:07:32;7.55;;;2.50;;
38053;SDS011;23859;50.672;7.164;2023-05-16T08:09:58;12.45;;;4.22;;
38053;SDS011;23859;50.672;7.164;2023-05-16T08:12:24;6.65;;;3.38;;
38053;SDS011;23859;50.672;7.164;2023-05-16T08:14:51;12.90;;;2.53;;
38053;SDS011;23859;50.672;7.164;2023-05-16T08:17:17;10.00;;;2.55;;
38053;SDS011;23859;50.672;7.164;2023-05-16T08:19:43;7.75;;;3.67;;
38053;SDS011;23859;50.672;7.164;2023-05-16T08:22:10;7.03;;;2.03;;
38053;SDS011;23859;50.672;7.164;2023-05-16T08:24:36;10.18;;;2.17;;
38053;SDS011;23859;50.672;7.164;2023-05-16T08:27:02;14.75;;;2.25;;
38053;SDS011;23859;50.672;7.164;2023-05-16T08:29:28;25.42;;;3.00;;
38053;SDS011;23859;50.672;7.164;2023-05-16T08:31:55;11.60;;;2.38;;
38053;SDS011;23859;50.672;7.164;2023-05-16T08:34:21;7.13;;;2.05;;
38053;SDS011;23859;50.672;7.164;2023-05-16T08:36:48;11.93;;;2.03;;
38053;SDS011;23859;50.672;7.164;2023-05-16T08:39:14;12.82;;;3.80;;
38053;SDS011;23859;50.672;7.164;2023-05-16T08:41:40;7.35;;;2.58;;
38053;SDS011;23859;50.672;7.164;2023-05-16T08:44:06;13.63;;;3.17;;
38053;SDS011;23859;50.672;7.164;2023-05-16T08:46:34;15.30;;;3.33;;
38053;SDS011;23859;50.672;7.164;2023-05-16T08:49:00;8.23;;;1.42;;
38053;SDS011;23859;50.672;7.164;2023-05-16T08:51:31;10.15;;;1.73;;
38053;SDS011;23859;50.672;7.164;2023-05-16T08:54:03;4.78;;;1.77;;
38053;SDS011;23859;50.672;7.164;2023-05-16T08:59:02;4.85;;;1.70;;
38053;SDS011;23859;50.672;7.164;2023-05-16T09:01:29;6.82;;;1.60;;
38053;SDS011;23859;50.672;7.164;2023-05-16T09:03:58;5.80;;;1.70;;
38053;SDS011;23859;50.672;7.164;2023-05-16T09:06:25;5.35;;;1.25;;
38053;SDS011;23859;50.672;7.164;2023-05-16T09:08:52;11.57;;;1.58;;
38053;SDS011;23859;50.672;7.164;2023-05-16T09:11:18;6.03;;;1.63;;
38053;SDS011;23859;50.672;7.164;2023-05-16T09:13:45;7.43;;;1.95;;
38053;SDS011;23859;50.672;7.164;2023-05-16T09:16:14;7.38;;;1.50;;
38053;SDS011;23859;50.672;7.164;2023-05-16T09:18:45;6.18;;;1.63;;
38053;SDS011;23859;50.672;7.164;2023-05-16T09:21:22;5.97;;;1.63;;
38053;SDS011;23859;50.672;7.164;2023-05-16T09:23:51;6.43;;;1.63;;
38053;SDS011;23859;50.672;7.164;2023-05-16T09:26:17;7.38;;;1.85;;
38053;SDS011;23859;50.672;7.164;2023-05-16T09:28:43;9.45;;;1.48;;
38053;SDS011;23859;50.672;7.164;2023-05-16T09:31:22;8.77;;;1.85;;
38053;SDS011;23859;50.672;7.164;2023-05-16T09:33:56;8.75;;;2.47;;
38053;SDS011;23859;50.672;7.164;2023-05-16T09:36:22;8.90;;;1.65;;
38053;SDS011;23859;50.672;7.164;2023-05-16T09:38:50;6.53;;;1.73;;
38053;SDS011;23859;50.672;7.164;2023-05-16T09:41:16;4.13;;;1.50;;
38053;SDS011;23859;50.672;7.164;2023-05-16T09:43:43;10.93;;;1.50;;
38053;SDS011;23859;50.672;7.164;2023-05-16T09:46:12;11.02;;;1.73;;
38053;SDS011;23859;50.672;7.164;2023-05-16T09:48:40;15.57;;;2.05;;
38053;SDS011;23859;50.672;7.164;2023-05-16T09:51:09;4.75;;;1.77;;
38053;SDS011;23859;50.672;7.164;2023-05-16T09:53:37;5.13;;;1.30;;
38053;SDS011;23859;50.672;7.164;2023-05-16T09:56:07;6.18;;;1.85;;
38053;SDS011;23859;50.672;7.164;2023-05-16T09:58:37;11.52;;;2.63;;
38053;SDS011;23859;50.672;7.164;2023-05-16T10:01:05;10.48;;;2.00;;
38053;SDS011;23859;50.672;7.164;2023-05-16T10:03:35;11.52;;;2.00;;
38053;SDS011;23859;50.672;7.164;2023-05-16T10:06:03;6.43;;;1.85;;
38053;SDS011;23859;50.672;7.164;2023-05-16T10:08:31;12.60;;;2.35;;
38053;SDS011;23859;50.672;7.164;2023-05-16T10:11:02;2.78;;;1.60;;
38053;SDS011;23859;50.672;7.164;2023-05-16T10:13:29;4.28;;;1.65;;
38053;SDS011;23859;50.672;7.164;2023-05-16T10:15:58;1.85;;;1.45;;
38053;SDS011;23859;50.672;7.164;2023-05-16T10:18:29;5.60;;;2.05;;
38053;SDS011;23859;50.672;7.164;2023-05-16T10:20:56;7.68;;;1.67;;
38053;SDS011;23859;50.672;7.164;2023-05-16T10:23:28;7.47;;;2.10;;
38053;SDS011;23859;50.672;7.164;2023-05-16T10:25:55;11.38;;;2.00;;
38053;SDS011;23859;50.672;7.164;2023-05-16T10:28:22;9.02;;;2.28;;
38053;SDS011;23859;50.672;7.164;2023-05-16T10:30:49;3.97;;;1.65;;
38053;SDS011;23859;50.672;7.164;2023-05-16T10:33:18;8.38;;;1.73;;
38053;SDS011;23859;50.672;7.164;2023-05-16T10:35:44;13.48;;;1.83;;
38053;SDS011;23859;50.672;7.164;2023-05-16T10:38:11;7.07;;;1.75;;
38053;SDS011;23859;50.672;7.164;2023-05-16T10:40:41;7.05;;;1.55;;
38053;SDS011;23859;50.672;7.164;2023-05-16T10:43:07;4.25;;;1.50;;
38053;SDS011;23859;50.672;7.164;2023-05-16T10:45:34;5.00;;;1.70;;
38053;SDS011;23859;50.672;7.164;2023-05-16T10:48:05;6.15;;;1.88;;
38053;SDS011;23859;50.672;7.164;2023-05-16T10:50:41;7.35;;;1.80;;
38053;SDS011;23859;50.672;7.164;2023-05-16T11:06:24;6.07;;;1.58;;
38053;SDS011;23859;50.672;7.164;2023-05-16T11:17:20;5.95;;;1.45;;
38053;SDS011;23859;50.672;7.164;2023-05-16T11:19:49;4.53;;;1.60;;
38053;SDS011;23859;50.672;7.164;2023-05-16T11:30:00;5.72;;;1.45;;
38053;SDS011;23859;50.672;7.164;2023-05-16T11:32:29;6.97;;;2.42;;
38053;SDS011;23859;50.672;7.164;2023-05-16T11:34:58;2.75;;;1.05;;
38053;SDS011;23859;50.672;7.164;2023-05-16T11:37:25;4.90;;;1.15;;
38053;SDS011;23859;50.672;7.164;2023-05-16T11:39:51;5.93;;;1.15;;
38053;SDS011;23859;50.672;7.164;2023-05-16T11:42:17;4.97;;;1.40;;
38053;SDS011;23859;50.672;7.164;2023-05-16T11:44:43;7.25;;;1.25;;
38053;SDS011;23859;50.672;7.164;2023-05-16T11:47:10;4.55;;;1.02;;
38053;SDS011;23859;50.672;7.164;2023-05-16T11:49:36;8.15;;;1.70;;
38053;SDS011;23859;50.672;7.164;2023-05-16T11:52:02;4.65;;;1.35;;
38053;SDS011;23859;50.672;7.164;2023-05-16T11:54:29;3.63;;;1.00;;
38053;SDS011;23859;50.672;7.164;2023-05-16T11:56:56;7.97;;;1.48;;
38053;SDS011;23859;50.672;7.164;2023-05-16T11:59:22;13.10;;;1.45;;
38053;SDS011;23859;50.672;7.164;2023-05-16T12:01:49;2.22;;;0.90;;
38053;SDS011;23859;50.672;7.164;2023-05-16T12:04:15;4.60;;;1.13;;
38053;SDS011;23859;50.672;7.164;2023-05-16T12:06:41;4.85;;;1.15;;
38053;SDS011;23859;50.672;7.164;2023-05-16T12:09:12;3.55;;;1.15;;
38053;SDS011;23859;50.672;7.164;2023-05-16T12:11:41;4.13;;;1.30;;
38053;SDS011;23859;50.672;7.164;2023-05-16T12:14:09;4.03;;;1.58;;
38053;SDS011;23859;50.672;7.164;2023-05-16T12:16:36;3.97;;;1.40;;
38053;SDS011;23859;50.672;7.164;2023-05-16T12:19:04;5.53;;;1.77;;
38053;SDS011;23859;50.672;7.164;2023-05-16T12:21:31;5.85;;;1.35;;
38053;SDS011;23859;50.672;7.164;2023-05-16T12:23:57;5.40;;;1.30;;
38053;SDS011;23859;50.672;7.164;2023-05-16T12:26:27;2.78;;;1.38;;
38053;SDS011;23859;50.672;7.164;2023-05-16T12:28:57;4.10;;;1.30;;
38053;SDS011;23859;50.672;7.164;2023-05-16T12:31:27;4.20;;;2.13;;
38053;SDS011;23859;50.672;7.164;2023-05-16T12:33:56;4.80;;;1.80;;
38053;SDS011;23859;50.672;7.164;2023-05-16T12:36:23;4.25;;;1.55;;
38053;SDS011;23859;50.672;7.164;2023-05-16T12:38:50;6.45;;;1.52;;
38053;SDS011;23859;50.672;7.164;2023-05-16T12:41:17;6.93;;;1.60;;
38053;SDS011;23859;50.672;7.164;2023-05-16T12:43:45;7.80;;;1.85;;
38053;SDS011;23859;50.672;7.164;2023-05-16T12:46:11;6.15;;;1.50;;
38053;SDS011;23859;50.672;7.164;2023-05-16T12:48:38;7.40;;;1.70;;
38053;SDS011;23859;50.672;7.164;2023-05-16T12:51:13;5.22;;;1.58;;
38053;SDS011;23859;50.672;7.164;2023-05-16T12:53:41;3.88;;;2.28;;
38053;SDS011;23859;50.672;7.164;2023-05-16T12:56:08;4.35;;;1.80;;
38053;SDS011;23859;50.672;7.164;2023-05-16T12:58:35;7.70;;;1.63;;
38053;SDS011;23859;50.672;7.164;2023-05-16T13:01:02;5.10;;;1.80;;
38053;SDS011;23859;50.672;7.164;2023-05-16T13:03:28;7.57;;;2.30;;
38053;SDS011;23859;50.672;7.164;2023-05-16T13:05:55;4.97;;;1.70;;
38053;SDS011;23859;50.672;7.164;2023-05-16T13:08:21;6.40;;;2.42;;
38053;SDS011;23859;50.672;7.164;2023-05-16T13:10:48;7.65;;;2.40;;
38053;SDS011;23859;50.672;7.164;2023-05-16T13:13:14;5.47;;;2.42;;
38053;SDS011;23859;50.672;7.164;2023-05-16T13:15:42;5.65;;;2.00;;
38053;SDS011;23859;50.672;7.164;2023-05-16T13:18:09;4.95;;;1.50;;
38053;SDS011;23859;50.672;7.164;2023-05-16T13:20:35;7.22;;;1.50;;
38053;SDS011;23859;50.672;7.164;2023-05-16T13:23:03;3.67;;;1.30;;
38053;SDS011;23859;50.672;7.164;2023-05-16T13:25:29;3.58;;;1.27;;
38053;SDS011;23859;50.672;7.164;2023-05-16T13:27:56;5.75;;;1.20;;
38053;SDS011;23859;50.672;7.164;2023-05-16T13:30:22;6.90;;;0.85;;
38053;SDS011;23859;50.672;7.164;2023-05-16T13:32:48;1.67;;;0.80;;
38053;SDS011;23859;50.672;7.164;2023-05-16T13:35:16;4.07;;;0.60;;
38053;SDS011;23859;50.672;7.164;2023-05-16T13:37:42;3.67;;;0.77;;
38053;SDS011;23859;50.672;7.164;2023-05-16T13:40:09;4.03;;;0.80;;
38053;SDS011;23859;50.672;7.164;2023-05-16T13:42:38;1.13;;;0.70;;
38053;SDS011;23859;50.672;7.164;2023-05-16T13:45:04;2.25;;;0.68;;
38053;SDS011;23859;50.672;7.164;2023-05-16T13:47:31;3.55;;;0.98;;
38053;SDS011;23859;50.672;7.164;2023-05-16T13:49:57;5.45;;;1.20;;
38053;SDS011;23859;50.672;7.164;2023-05-16T13:52:33;4.75;;;1.13;;
38053;SDS011;23859;50.672;7.164;2023-05-16T13:54:59;4.15;;;1.02;;
38053;SDS011;23859;50.672;7.164;2023-05-16T13:57:25;3.85;;;0.93;;
38053;SDS011;23859;50.672;7.164;2023-05-16T13:59:52;3.85;;;1.05;;
38053;SDS011;23859;50.672;7.164;2023-05-16T14:02:18;5.43;;;1.27;;
38053;SDS011;23859;50.672;7.164;2023-05-16T14:04:44;4.38;;;1.33;;
38053;SDS011;23859;50.672;7.164;2023-05-16T14:07:10;2.88;;;1.00;;
38053;SDS011;23859;50.672;7.164;2023-05-16T14:09:36;3.97;;;1.38;;
38053;SDS011;23859;50.672;7.164;2023-05-16T14:12:04;5.70;;;1.42;;
38053;SDS011;23859;50.672;7.164;2023-05-16T14:14:31;4.07;;;1.38;;
38053;SDS011;23859;50.672;7.164;2023-05-16T14:17:00;5.40;;;1.50;;
38053;SDS011;23859;50.672;7.164;2023-05-16T14:19:28;5.28;;;1.75;;
38053;SDS011;23859;50.672;7.164;2023-05-16T14:21:54;3.80;;;1.15;;
38053;SDS011;23859;50.672;7.164;2023-05-16T14:24:20;5.95;;;1.45;;
38053;SDS011;23859;50.672;7.164;2023-05-16T14:26:46;4.28;;;1.40;;
38053;SDS011;23859;50.672;7.164;2023-05-16T14:29:12;2.60;;;1.10;;
38053;SDS011;23859;50.672;7.164;2023-05-16T14:31:39;4.63;;;1.40;;
38053;SDS011;23859;50.672;7.164;2023-05-16T14:34:05;3.58;;;1.40;;
38053;SDS011;23859;50.672;7.164;2023-05-16T14:36:31;2.95;;;1.17;;
38053;SDS011;23859;50.672;7.164;2023-05-16T14:38:57;6.80;;;1.20;;
38053;SDS011;23859;50.672;7.164;2023-05-16T14:41:23;4.03;;;1.88;;
38053;SDS011;23859;50.672;7.164;2023-05-16T14:43:49;2.90;;;1.00;;
38053;SDS011;23859;50.672;7.164;2023-05-16T14:46:15;7.68;;;1.17;;
38053;SDS011;23859;50.672;7.164;2023-05-16T14:48:42;1.80;;;0.95;;
38053;SDS011;23859;50.672;7.164;2023-05-16T14:51:08;4.28;;;1.10;;
38053;SDS011;23859;50.672;7.164;2023-05-16T14:53:34;5.18;;;1.30;;
38053;SDS011;23859;50.672;7.164;2023-05-16T14:56:01;4.45;;;1.20;;
38053;SDS011;23859;50.672;7.164;2023-05-16T14:58:27;1.88;;;1.20;;
38053;SDS011;23859;50.672;7.164;2023-05-16T15:00:54;2.53;;;0.80;;
38053;SDS011;23859;50.672;7.164;2023-05-16T15:03:20;3.95;;;1.55;;
38053;SDS011;23859;50.672;7.164;2023-05-16T15:05:46;2.42;;;0.90;;
38053;SDS011;23859;50.672;7.164;2023-05-16T15:08:13;1.25;;;0.60;;
38053;SDS011;23859;50.672;7.164;2023-05-16T15:10:39;5.07;;;1.23;;
38053;SDS011;23859;50.672;7.164;2023-05-16T15:13:06;3.40;;;1.02;;
38053;SDS011;23859;50.672;7.164;2023-05-16T15:15:32;3.67;;;1.20;;
38053;SDS011;23859;50.672;7.164;2023-05-16T15:17:58;2.75;;;1.23;;
38053;SDS011;23859;50.672;7.164;2023-05-16T15:20:25;3.70;;;0.88;;
38053;SDS011;23859;50.672;7.164;2023-05-16T15:22:51;4.97;;;0.90;;